Time;durP1;ratioP1;P1;durP2;ratioP2;P2;SDS_P1;SDS_P2;PMS_P1;PMS_P2;Temp;Humidity;BMP_temperature;BMP_pressure;BME280_temperature;BME280_humidity;BME280_pressure;Samples;Min_cycle;Max_cycle;Signal;HPM_P1;HPM_P2
2022/11/07 00:00:29;;;;;;;4.03;3.00;;;12.10;99.90;;;;;;5011119;28;20639;-70
2022/11/07 00:02:55;;;;;;;5.57;3.40;;;12.00;99.90;;;;;;5008342;28;20526;-70
2022/11/07 00:05:21;;;;;;;7.07;3.10;;;12.00;99.90;;;;;;5011537;28;20191;-70
2022/11/07 00:07:46;;;;;;;4.20;3.57;;;12.00;99.90;;;;;;5014952;28;20186;-71
2022/11/07 00:10:12;;;;;;;5.23;3.40;;;12.10;99.90;;;;;;5034688;28;20434;-70
2022/11/07 00:12:38;;;;;;;5.33;3.20;;;12.10;99.90;;;;;;5003289;28;20570;-69
2022/11/07 00:15:05;;;;;;;4.30;3.47;;;12.10;99.90;;;;;;5017183;28;20587;-70
2022/11/07 00:17:31;;;;;;;4.40;3.40;;;12.10;99.90;;;;;;4997213;28;20179;-70
2022/11/07 00:19:56;;;;;;;4.90;3.90;;;12.10;99.90;;;;;;5005731;28;20511;-69
2022/11/07 00:22:22;;;;;;;6.23;3.40;;;12.10;99.90;;;;;;5018273;28;20512;-69
2022/11/07 00:24:47;;;;;;;4.27;3.47;;;12.30;99.90;;;;;;5012807;28;20191;-69
2022/11/07 00:27:13;;;;;;;5.53;3.67;;;12.20;99.90;;;;;;5014627;28;20553;-69
2022/11/07 00:29:39;;;;;;;5.50;3.17;;;12.20;99.90;;;;;;5011981;28;21475;-69
2022/11/07 00:32:05;;;;;;;4.97;3.70;;;12.20;99.90;;;;;;5025011;28;20217;-69
2022/11/07 00:34:34;;;;;;;6.17;3.20;;;12.20;99.90;;;;;;5022015;28;20442;-69
2022/11/07 00:36:59;;;;;;;4.93;3.00;;;12.30;99.90;;;;;;5009509;28;20222;-69
2022/11/07 00:39:25;;;;;;;3.47;3.07;;;12.30;99.90;;;;;;5005024;28;20911;-70
2022/11/07 00:41:50;;;;;;;3.73;2.77;;;12.30;99.90;;;;;;5002182;28;20249;-70
2022/11/07 00:44:16;;;;;;;3.20;2.90;;;12.30;99.90;;;;;;5012178;28;20634;-69
2022/11/07 00:46:42;;;;;;;3.73;2.90;;;12.30;99.90;;;;;;5011546;28;20656;-70
2022/11/07 00:49:07;;;;;;;3.70;3.00;;;12.20;99.90;;;;;;5000206;28;20293;-69
2022/11/07 00:51:33;;;;;;;3.63;3.03;;;12.30;99.90;;;;;;5011238;28;20277;-69
2022/11/07 00:54:01;;;;;;;6.70;2.80;;;12.40;99.90;;;;;;4994113;28;20189;-69
2022/11/07 00:56:27;;;;;;;7.07;4.17;;;12.40;99.90;;;;;;5008149;28;20191;-70
2022/11/07 00:58:57;;;;;;;3.23;2.63;;;12.50;99.90;;;;;;4998497;28;20445;-70
2022/11/07 01:01:26;;;;;;;4.50;2.70;;;12.50;99.90;;;;;;4995851;28;20806;-70
2022/11/07 01:06:37;;;;;;;2.90;2.40;;;12.60;99.90;;;;;;5004327;28;20835;-70
2022/11/07 01:09:06;;;;;;;5.37;2.50;;;12.70;99.90;;;;;;5013279;28;20438;-69
2022/11/07 01:11:31;;;;;;;4.60;2.60;;;12.70;99.90;;;;;;5003877;28;20449;-69
2022/11/07 01:14:01;;;;;;;2.53;2.10;;;12.70;99.90;;;;;;5006335;28;20438;-70
2022/11/07 01:16:28;;;;;;;4.17;2.20;;;12.80;99.90;;;;;;5015179;28;20183;-70
2022/11/07 01:18:54;;;;;;;5.67;2.90;;;12.70;99.90;;;;;;5008641;28;20469;-70
2022/11/07 01:21:20;;;;;;;2.70;2.10;;;12.80;99.90;;;;;;5017295;28;20437;-70
2022/11/07 01:23:46;;;;;;;7.03;2.60;;;12.80;99.90;;;;;;5003586;28;20435;-70
2022/11/07 01:26:12;;;;;;;4.90;2.47;;;12.80;99.90;;;;;;5015234;28;20190;-70
2022/11/07 01:28:38;;;;;;;5.13;2.23;;;12.90;99.90;;;;;;5010657;28;20190;-70
2022/11/07 01:31:10;;;;;;;2.80;2.10;;;13.00;99.90;;;;;;5010285;28;20507;-69
2022/11/07 01:33:37;;;;;;;3.83;2.00;;;13.00;99.90;;;;;;5009733;28;20410;-69
2022/11/07 01:36:07;;;;;;;3.17;2.30;;;12.90;99.90;;;;;;4996363;28;20543;-70
2022/11/07 01:38:38;;;;;;;4.83;2.87;;;12.90;99.90;;;;;;5020053;28;20421;-70
2022/11/07 01:44:08;;;;;;;4.63;2.70;;;13.00;99.90;;;;;;5022195;28;20445;-69
2022/11/07 01:46:42;;;;;;;3.70;2.20;;;12.90;99.90;;;;;;4959657;28;20427;-69
2022/11/07 01:49:11;;;;;;;3.40;2.20;;;12.90;99.90;;;;;;5006702;28;20509;-70
2022/11/07 01:51:59;;;;;;;3.70;2.40;;;13.00;99.90;;;;;;5016588;28;20433;-69
2022/11/07 01:54:32;;;;;;;3.93;2.50;;;13.00;99.90;;;;;;5006960;28;20441;-70
2022/11/07 01:57:02;;;;;;;2.40;1.90;;;13.00;99.90;;;;;;4999032;28;20430;-69
2022/11/07 01:59:30;;;;;;;3.03;2.40;;;13.00;99.90;;;;;;4996268;28;20425;-70
2022/11/07 02:01:56;;;;;;;4.00;2.90;;;13.10;99.90;;;;;;5006477;28;20469;-70
2022/11/07 02:04:24;;;;;;;3.23;2.67;;;13.00;99.90;;;;;;5012415;28;20441;-69
2022/11/07 02:07:17;;;;;;;2.90;2.13;;;13.10;99.90;;;;;;5008987;28;20441;-69
2022/11/07 02:09:43;;;;;;;3.30;2.63;;;13.10;99.90;;;;;;5023370;28;20607;-69
2022/11/07 02:12:09;;;;;;;3.10;2.40;;;13.10;99.90;;;;;;5009294;28;20958;-69
2022/11/07 02:14:34;;;;;;;3.83;2.03;;;13.00;99.90;;;;;;5011088;28;20441;-70
2022/11/07 02:17:00;;;;;;;3.63;2.13;;;13.10;99.90;;;;;;5028255;28;20259;-70
2022/11/07 02:19:39;;;;;;;3.00;2.10;;;13.10;99.90;;;;;;5010440;28;20191;-71
2022/11/07 02:22:37;;;;;;;3.73;2.47;;;13.10;99.90;;;;;;4997584;28;20795;-69
2022/11/07 02:25:07;;;;;;;2.73;2.20;;;13.10;99.90;;;;;;4947705;28;20439;-70
2022/11/07 02:27:34;;;;;;;5.50;2.70;;;13.20;99.90;;;;;;4993591;28;20601;-69
2022/11/07 02:30:08;;;;;;;3.00;2.30;;;13.20;99.90;;;;;;5011931;28;20903;-69
2022/11/07 02:32:34;;;;;;;4.73;2.73;;;13.10;99.90;;;;;;5001026;28;20519;-70
2022/11/07 02:35:03;;;;;;;3.53;2.50;;;13.10;99.90;;;;;;5012017;28;20480;-70
2022/11/07 02:37:32;;;;;;;5.80;2.43;;;13.10;99.90;;;;;;5000255;28;20206;-69
2022/11/07 02:40:06;;;;;;;2.60;2.00;;;13.10;99.90;;;;;;4997437;28;20566;-69
2022/11/07 02:42:42;;;;;;;3.87;2.80;;;13.00;99.90;;;;;;5013598;28;20832;-70
2022/11/07 02:45:38;;;;;;;4.20;3.10;;;13.10;99.90;;;;;;5006542;28;20417;-69
2022/11/07 02:48:04;;;;;;;3.50;2.17;;;13.10;99.90;;;;;;5027714;28;20436;-69
2022/11/07 02:50:30;;;;;;;4.50;2.90;;;13.00;99.90;;;;;;4999998;28;20440;-69
2022/11/07 02:52:55;;;;;;;4.20;2.70;;;13.10;99.90;;;;;;5024239;28;20891;-69
2022/11/07 02:55:21;;;;;;;3.77;2.80;;;13.10;99.90;;;;;;5002470;28;20187;-71
2022/11/07 02:57:46;;;;;;;5.30;2.80;;;13.10;99.90;;;;;;5004699;28;20718;-70
2022/11/07 03:00:14;;;;;;;5.80;2.57;;;13.10;99.90;;;;;;5019376;28;20698;-70
2022/11/07 03:02:45;;;;;;;4.50;2.97;;;13.10;99.90;;;;;;5011293;28;20599;-70
2022/11/07 03:05:12;;;;;;;3.13;2.50;;;13.10;99.90;;;;;;5007366;28;20438;-70
2022/11/07 03:07:38;;;;;;;4.50;2.83;;;13.10;99.90;;;;;;5018997;28;20478;-70
2022/11/07 03:10:04;;;;;;;10.07;3.00;;;13.10;99.90;;;;;;5013810;28;20796;-69
2022/11/07 03:12:30;;;;;;;4.60;2.63;;;13.00;99.90;;;;;;5027525;28;20225;-69
2022/11/07 03:14:55;;;;;;;6.30;3.10;;;13.00;99.90;;;;;;4985205;28;20453;-69
2022/11/07 03:17:21;;;;;;;8.53;2.70;;;13.00;99.90;;;;;;5013042;28;20199;-69
2022/11/07 03:19:46;;;;;;;3.90;2.40;;;13.10;99.90;;;;;;5014402;28;20278;-69
2022/11/07 03:22:12;;;;;;;5.23;2.73;;;13.10;99.90;;;;;;5020083;28;20711;-69
2022/11/07 03:24:37;;;;;;;6.53;2.57;;;13.00;99.90;;;;;;5010029;28;20619;-69
2022/11/07 03:27:03;;;;;;;4.97;2.33;;;13.00;99.90;;;;;;5017375;28;20183;-70
2022/11/07 03:29:28;;;;;;;4.73;3.47;;;12.90;99.90;;;;;;5011248;28;20187;-69
2022/11/07 03:31:54;;;;;;;4.23;2.93;;;12.90;99.90;;;;;;5015309;28;20257;-69
2022/11/07 03:34:20;;;;;;;5.37;3.33;;;12.90;99.90;;;;;;5010475;28;20641;-69
2022/11/07 03:36:45;;;;;;;3.97;2.70;;;12.90;99.90;;;;;;5010377;28;20282;-69
2022/11/07 03:39:11;;;;;;;4.87;3.43;;;12.90;99.90;;;;;;4993538;28;20367;-70
2022/11/07 03:41:36;;;;;;;4.57;3.33;;;13.00;99.90;;;;;;5015463;28;20210;-70
2022/11/07 03:44:02;;;;;;;4.60;3.33;;;13.10;99.90;;;;;;5005664;28;20180;-71
2022/11/07 03:46:27;;;;;;;3.70;2.90;;;13.10;99.90;;;;;;5009053;28;20194;-70
2022/11/07 03:48:53;;;;;;;7.40;3.17;;;13.00;99.90;;;;;;5005725;28;20186;-70
2022/11/07 03:51:18;;;;;;;6.03;3.57;;;13.00;99.90;;;;;;5027694;28;20234;-70
2022/11/07 03:53:44;;;;;;;5.17;3.70;;;13.00;99.90;;;;;;5007841;28;20193;-70
2022/11/07 03:56:11;;;;;;;5.87;3.13;;;13.00;99.90;;;;;;4997669;28;20266;-69
2022/11/07 03:58:37;;;;;;;4.10;3.20;;;13.00;99.90;;;;;;5014497;28;20206;-70
2022/11/07 04:01:04;;;;;;;5.00;3.20;;;13.00;99.90;;;;;;5011594;28;20426;-70
2022/11/07 04:03:30;;;;;;;5.93;3.77;;;13.00;99.90;;;;;;5004346;28;20489;-70
2022/11/07 04:05:55;;;;;;;4.27;3.03;;;13.00;99.90;;;;;;5024165;28;20448;-70
2022/11/07 04:08:21;;;;;;;3.87;2.70;;;13.00;99.90;;;;;;5022530;28;20954;-69
2022/11/07 04:10:46;;;;;;;4.70;2.80;;;12.90;99.90;;;;;;4991425;28;20194;-68
2022/11/07 04:18:40;;;;;;;6.30;2.80;;;12.80;99.90;;;;;;5009992;28;20499;-70
2022/11/07 04:21:06;;;;;;;4.30;3.27;;;12.80;99.90;;;;;;5027262;28;20461;-68
2022/11/07 04:23:31;;;;;;;4.43;2.80;;;12.90;99.90;;;;;;5007428;28;20783;-70
2022/11/07 04:28:41;;;;;;;4.97;2.40;;;12.90;99.90;;;;;;4998188;28;20202;-68
2022/11/07 04:31:07;;;;;;;3.20;2.40;;;12.90;99.90;;;;;;5012816;28;20445;-69
2022/11/07 04:33:32;;;;;;;4.37;2.73;;;12.80;99.90;;;;;;5015050;28;20662;-69
2022/11/07 04:35:58;;;;;;;4.50;2.73;;;12.90;99.90;;;;;;5019961;28;20210;-69
2022/11/07 04:38:23;;;;;;;4.10;2.70;;;13.00;99.90;;;;;;5022685;28;20293;-69
2022/11/07 04:40:54;;;;;;;3.90;2.60;;;13.00;99.90;;;;;;5011634;28;20740;-69
2022/11/07 04:43:20;;;;;;;6.87;3.00;;;13.00;99.90;;;;;;5016060;28;20242;-69
2022/11/07 04:45:45;;;;;;;4.57;2.80;;;13.00;99.90;;;;;;5016762;28;20493;-69
2022/11/07 04:48:11;;;;;;;6.10;2.90;;;13.00;99.90;;;;;;5030303;28;20270;-69
2022/11/07 04:50:37;;;;;;;3.40;2.50;;;13.00;99.90;;;;;;4998640;28;20187;-68
2022/11/07 04:53:03;;;;;;;4.67;2.57;;;13.00;99.90;;;;;;5027019;28;20962;-68
2022/11/07 04:55:29;;;;;;;5.83;2.50;;;13.00;99.90;;;;;;5000188;28;20477;-70
2022/11/07 04:57:55;;;;;;;5.00;2.70;;;13.00;99.90;;;;;;5019352;28;20331;-70
2022/11/07 05:00:21;;;;;;;4.00;2.90;;;13.00;99.90;;;;;;5004647;28;20440;-70
2022/11/07 05:02:48;;;;;;;5.13;2.67;;;13.10;99.90;;;;;;5022622;28;20516;-70
2022/11/07 05:05:14;;;;;;;5.30;2.70;;;13.10;99.90;;;;;;5007125;28;20661;-69
2022/11/07 05:07:40;;;;;;;5.13;2.50;;;13.20;99.90;;;;;;5013839;28;20422;-69
2022/11/07 05:10:08;;;;;;;3.20;2.70;;;13.10;99.90;;;;;;5005011;28;20941;-69
2022/11/07 05:12:34;;;;;;;4.13;3.27;;;13.10;99.90;;;;;;4993584;28;20269;-70
2022/11/07 05:14:59;;;;;;;3.40;2.10;;;13.10;99.90;;;;;;5021253;28;20437;-70
2022/11/07 05:17:25;;;;;;;6.50;2.67;;;13.20;99.90;;;;;;4994886;28;20195;-69
2022/11/07 05:19:51;;;;;;;3.93;2.50;;;13.30;99.90;;;;;;5000786;28;20190;-69
2022/11/07 05:25:00;;;;;;;6.50;2.80;;;13.20;99.90;;;;;;5004052;28;20189;-69
2022/11/07 05:27:26;;;;;;;3.90;2.30;;;13.20;99.90;;;;;;5013169;28;20525;-69
2022/11/07 05:29:52;;;;;;;4.30;2.20;;;13.20;99.90;;;;;;5000161;28;20190;-70
2022/11/07 05:32:17;;;;;;;7.27;2.80;;;13.20;99.90;;;;;;5010166;28;20592;-70
2022/11/07 05:34:43;;;;;;;3.27;2.23;;;13.20;99.90;;;;;;4991491;28;20254;-69
2022/11/07 05:37:11;;;;;;;2.47;2.00;;;13.20;99.90;;;;;;5020426;28;20425;-70
2022/11/07 05:39:36;;;;;;;5.20;2.73;;;13.20;99.90;;;;;;4995682;28;20204;-70
2022/11/07 05:42:03;;;;;;;2.67;2.20;;;13.20;99.90;;;;;;5010782;28;20593;-68
2022/11/07 05:44:29;;;;;;;5.10;2.80;;;13.20;99.90;;;;;;5003353;28;20197;-69
2022/11/07 05:46:56;;;;;;;3.43;2.33;;;13.20;99.90;;;;;;5025686;28;20484;-69
2022/11/07 05:49:22;;;;;;;3.33;2.30;;;13.20;99.90;;;;;;4992353;28;20457;-68
2022/11/07 05:51:47;;;;;;;3.87;2.47;;;13.20;99.90;;;;;;5011866;28;20530;-70
2022/11/07 05:54:13;;;;;;;6.43;2.93;;;13.30;99.90;;;;;;5014206;28;20442;-69
2022/11/07 05:56:39;;;;;;;4.20;2.53;;;13.30;99.90;;;;;;5006083;28;20183;-68
2022/11/07 05:59:05;;;;;;;5.93;2.67;;;13.30;99.90;;;;;;4997627;28;20205;-69
2022/11/07 06:01:31;;;;;;;3.13;2.83;;;13.30;99.90;;;;;;4990930;28;20549;-69
2022/11/07 06:03:56;;;;;;;3.23;2.33;;;13.20;99.90;;;;;;5004968;28;20217;-69
2022/11/07 06:06:22;;;;;;;3.40;2.50;;;13.30;99.90;;;;;;5010924;28;20191;-69
2022/11/07 06:08:47;;;;;;;4.97;2.43;;;13.20;99.90;;;;;;4991431;28;20193;-70
2022/11/07 06:11:13;;;;;;;3.00;2.27;;;13.20;99.90;;;;;;5007944;28;20214;-70
2022/11/07 06:13:39;;;;;;;4.57;2.80;;;13.20;99.90;;;;;;4991693;28;20270;-69
2022/11/07 06:16:05;;;;;;;3.90;2.47;;;13.30;99.90;;;;;;5023775;28;20182;-69
2022/11/07 06:18:31;;;;;;;4.73;2.90;;;13.30;99.90;;;;;;5009499;28;21344;-70
2022/11/07 06:20:59;;;;;;;4.13;2.60;;;13.20;99.90;;;;;;4995498;28;20474;-69
2022/11/07 06:23:25;;;;;;;3.70;2.87;;;13.20;99.90;;;;;;5006619;28;20198;-70
2022/11/07 06:25:50;;;;;;;2.80;2.40;;;13.20;99.90;;;;;;5011401;28;20432;-69
2022/11/07 06:28:16;;;;;;;6.00;2.97;;;13.30;99.90;;;;;;5005970;28;20195;-68
2022/11/07 06:30:42;;;;;;;5.13;2.47;;;13.20;99.90;;;;;;5009508;28;20256;-69
2022/11/07 06:33:11;;;;;;;6.13;2.87;;;13.20;99.90;;;;;;5005485;28;20790;-69
2022/11/07 06:35:37;;;;;;;6.13;2.60;;;13.20;99.90;;;;;;4991361;28;20186;-71
2022/11/07 06:38:04;;;;;;;6.10;2.53;;;13.20;99.90;;;;;;5005096;28;20990;-69
2022/11/07 06:40:30;;;;;;;4.47;2.47;;;13.20;99.90;;;;;;4999012;28;20512;-69
2022/11/07 06:43:04;;;;;;;4.23;2.70;;;13.20;99.90;;;;;;4999351;28;20560;-70
2022/11/07 06:45:29;;;;;;;4.73;2.90;;;13.20;99.90;;;;;;5011290;28;20449;-70
2022/11/07 06:47:55;;;;;;;3.57;2.40;;;13.30;99.90;;;;;;5013595;28;20450;-71
2022/11/07 06:50:20;;;;;;;4.83;2.77;;;13.30;99.90;;;;;;5010137;28;20221;-69
2022/11/07 06:52:46;;;;;;;5.77;2.50;;;13.30;99.90;;;;;;4998611;28;20211;-69
2022/11/07 06:55:11;;;;;;;4.23;2.77;;;13.30;99.90;;;;;;5013892;28;20191;-68
2022/11/07 06:57:37;;;;;;;5.23;2.53;;;13.30;99.90;;;;;;4999232;28;20179;-70
2022/11/07 07:00:04;;;;;;;6.87;2.50;;;13.40;99.90;;;;;;5028034;28;20735;-70
2022/11/07 07:02:30;;;;;;;4.30;2.57;;;13.30;99.90;;;;;;5012774;28;20257;-70
2022/11/07 07:04:55;;;;;;;4.00;2.20;;;13.20;99.90;;;;;;5017781;28;21020;-70
2022/11/07 07:07:21;;;;;;;5.40;2.40;;;13.20;99.90;;;;;;5005147;28;20774;-69
2022/11/07 07:09:46;;;;;;;9.67;2.70;;;13.20;99.90;;;;;;5011928;28;20183;-70
2022/11/07 07:12:12;;;;;;;8.10;2.67;;;13.20;99.90;;;;;;5003152;28;20206;-70
2022/11/07 07:14:37;;;;;;;8.50;2.73;;;13.30;99.90;;;;;;5013577;28;20575;-70
2022/11/07 07:17:03;;;;;;;4.80;2.60;;;13.20;99.90;;;;;;5003042;28;20683;-69
2022/11/07 07:19:28;;;;;;;4.23;2.67;;;13.30;99.90;;;;;;5016590;28;20206;-69
2022/11/07 07:21:54;;;;;;;4.90;2.73;;;13.30;99.90;;;;;;5005169;28;20214;-69
2022/11/07 07:24:19;;;;;;;3.80;2.60;;;13.40;99.90;;;;;;5004636;28;20209;-69
2022/11/07 07:26:45;;;;;;;6.13;3.00;;;13.40;99.90;;;;;;5018127;28;20608;-69
2022/11/07 07:29:10;;;;;;;6.03;2.67;;;13.30;99.90;;;;;;5005460;28;20183;-69
2022/11/07 07:31:36;;;;;;;6.50;2.30;;;13.40;99.90;;;;;;5019280;28;20218;-70
2022/11/07 07:34:02;;;;;;;5.67;3.00;;;13.20;99.90;;;;;;5025422;28;20201;-69
2022/11/07 07:36:28;;;;;;;11.60;2.43;;;13.30;99.90;;;;;;5027002;28;20540;-69
2022/11/07 07:38:53;;;;;;;9.00;3.40;;;13.40;99.90;;;;;;5023402;28;20538;-69
2022/11/07 07:41:19;;;;;;;5.80;2.80;;;13.50;99.90;;;;;;5000903;28;20465;-69
2022/11/07 07:43:45;;;;;;;3.83;2.30;;;13.50;99.90;;;;;;5021534;28;20215;-69
2022/11/07 07:46:20;;;;;;;3.93;2.83;;;13.60;99.90;;;;;;5009879;28;20426;-69
2022/11/07 07:48:46;;;;;;;5.70;2.33;;;13.60;99.90;;;;;;5016864;28;20425;-70
2022/11/07 07:51:11;;;;;;;5.20;2.50;;;13.60;99.90;;;;;;5006668;28;20480;-68
2022/11/07 07:53:37;;;;;;;8.50;2.60;;;13.70;99.90;;;;;;5016084;28;20281;-68
2022/11/07 07:56:05;;;;;;;3.80;2.30;;;13.70;99.90;;;;;;5013878;28;20190;-68
2022/11/07 07:58:30;;;;;;;4.30;2.50;;;13.70;99.90;;;;;;5014517;28;20194;-68
2022/11/07 08:00:56;;;;;;;9.17;3.00;;;13.70;99.90;;;;;;5023959;28;20454;-69
2022/11/07 08:03:23;;;;;;;6.43;2.40;;;13.70;99.90;;;;;;5017300;28;20311;-69
2022/11/07 08:05:57;;;;;;;4.47;2.30;;;13.70;99.90;;;;;;5002770;28;20179;-69
2022/11/07 08:08:23;;;;;;;4.60;2.53;;;13.70;99.90;;;;;;4992605;28;20474;-69
2022/11/07 08:10:55;;;;;;;6.00;3.10;;;13.80;99.90;;;;;;5013108;28;20456;-69
2022/11/07 08:13:22;;;;;;;5.37;2.30;;;13.80;99.90;;;;;;4994295;28;20446;-69
2022/11/07 08:15:49;;;;;;;7.17;3.17;;;13.80;99.90;;;;;;5001660;28;20422;-69
2022/11/07 08:18:15;;;;;;;5.57;2.73;;;13.90;99.90;;;;;;4999687;28;20457;-69
2022/11/07 08:20:40;;;;;;;4.93;2.70;;;13.80;99.90;;;;;;4992897;28;20468;-69
2022/11/07 08:23:07;;;;;;;6.83;2.70;;;13.90;99.90;;;;;;5009411;28;20543;-69
2022/11/07 08:25:33;;;;;;;5.17;2.43;;;14.00;99.90;;;;;;5009311;28;20236;-69
2022/11/07 08:27:59;;;;;;;7.10;2.50;;;14.10;99.90;;;;;;5014918;28;20438;-70
2022/11/07 08:30:25;;;;;;;6.63;2.83;;;14.10;99.90;;;;;;5003068;28;20664;-68
2022/11/07 08:32:52;;;;;;;8.90;2.57;;;14.00;99.90;;;;;;5006817;28;20499;-69
2022/11/07 08:35:17;;;;;;;4.53;2.37;;;14.10;99.90;;;;;;5018624;28;20483;-68
2022/11/07 08:37:43;;;;;;;3.60;2.40;;;14.10;99.90;;;;;;5007061;28;20476;-68
2022/11/07 08:40:09;;;;;;;3.70;2.47;;;14.00;99.90;;;;;;5028991;28;20218;-70
2022/11/07 08:42:35;;;;;;;5.30;2.20;;;14.00;99.90;;;;;;4998185;28;20765;-69
2022/11/07 08:45:00;;;;;;;5.10;2.40;;;14.00;99.90;;;;;;5015503;28;20520;-69
2022/11/07 08:47:27;;;;;;;3.60;2.53;;;14.00;99.90;;;;;;4995294;28;20198;-69
2022/11/07 08:49:53;;;;;;;5.10;2.60;;;14.10;99.90;;;;;;5029601;28;20176;-69
2022/11/07 08:52:18;;;;;;;4.43;2.40;;;14.10;99.90;;;;;;4997164;28;20461;-69
2022/11/07 08:54:44;;;;;;;2.80;2.27;;;14.20;99.90;;;;;;5015355;28;20183;-69
2022/11/07 08:57:10;;;;;;;4.07;2.10;;;14.20;99.90;;;;;;5003457;28;20833;-69
2022/11/07 08:59:36;;;;;;;10.47;4.30;;;14.20;99.90;;;;;;5012709;28;20701;-69
2022/11/07 09:02:02;;;;;;;7.00;2.37;;;14.20;99.90;;;;;;5008073;28;20477;-69
2022/11/07 09:04:27;;;;;;;4.70;2.20;;;14.20;99.90;;;;;;5015486;28;20194;-69
2022/11/07 09:06:54;;;;;;;5.57;2.20;;;14.20;99.90;;;;;;5008397;28;20217;-69
2022/11/07 09:09:20;;;;;;;3.10;2.03;;;14.30;99.90;;;;;;5006188;28;20176;-69
2022/11/07 09:11:46;;;;;;;10.53;2.10;;;14.40;99.90;;;;;;4990608;28;20978;-69
2022/11/07 09:14:11;;;;;;;5.90;2.83;;;14.40;99.90;;;;;;5012598;28;20179;-69
2022/11/07 09:16:37;;;;;;;3.83;2.40;;;14.60;99.90;;;;;;4990908;28;20187;-68
2022/11/07 09:19:02;;;;;;;8.30;2.70;;;14.60;99.90;;;;;;5022939;28;20187;-68
2022/11/07 09:21:28;;;;;;;7.00;2.87;;;14.80;99.90;;;;;;5000565;28;20206;-68
2022/11/07 09:23:53;;;;;;;8.00;4.00;;;14.90;99.90;;;;;;5025337;28;20252;-68
2022/11/07 09:26:19;;;;;;;3.00;2.07;;;14.90;99.90;;;;;;5006211;28;20187;-68
2022/11/07 09:28:45;;;;;;;10.17;2.27;;;15.00;99.90;;;;;;5030346;28;20193;-68
2022/11/07 09:31:11;;;;;;;5.53;2.00;;;14.90;99.90;;;;;;4955894;28;1067286;-68
2022/11/07 09:33:36;;;;;;;4.00;2.37;;;14.90;99.90;;;;;;5024637;28;20921;-68
2022/11/07 09:45:21;;;;;;;7.47;2.10;;;15.20;99.90;;;;;;4936637;28;20446;-67
2022/11/07 09:47:58;;;;;;;9.07;2.20;;;15.30;99.90;;;;;;4933172;28;20454;-67
2022/11/07 09:50:27;;;;;;;5.63;2.03;;;15.20;99.90;;;;;;4932647;28;20191;-67
2022/11/07 09:55:52;;;;;;;4.80;2.20;;;15.20;99.90;;;;;;4939353;28;20509;-68
2022/11/07 09:58:25;;;;;;;5.60;2.43;;;15.20;99.90;;;;;;4938103;28;20450;-67
2022/11/07 10:00:53;;;;;;;1.97;1.50;;;15.20;99.90;;;;;;4939368;28;20508;-67
2022/11/07 10:03:19;;;;;;;5.67;2.70;;;15.30;99.90;;;;;;4940803;28;20479;-68
2022/11/07 10:05:49;;;;;;;4.00;2.23;;;15.30;99.90;;;;;;4942967;28;20446;-68
2022/11/07 10:08:52;;;;;;;5.27;2.13;;;15.40;99.90;;;;;;4936777;28;20176;-68
2022/11/07 10:11:36;;;;;;;5.03;2.27;;;15.40;99.90;;;;;;4944943;28;20441;-68
2022/11/07 10:14:22;;;;;;;6.50;2.10;;;15.50;99.90;;;;;;4942031;28;20553;-68
2022/11/07 10:17:05;;;;;;;5.20;2.00;;;15.50;99.90;;;;;;4943762;28;20518;-68
2022/11/07 10:19:33;;;;;;;5.93;2.03;;;15.70;99.90;;;;;;4944143;28;20445;-68
2022/11/07 10:22:08;;;;;;;4.70;1.97;;;15.70;99.90;;;;;;4957332;22;20447;-68
2022/11/07 10:24:40;;;;;;;6.70;2.20;;;15.70;99.90;;;;;;5014743;28;20890;-67
2022/11/07 10:27:10;;;;;;;9.20;2.43;;;15.70;99.90;;;;;;4996713;28;20972;-67
2022/11/07 10:29:52;;;;;;;3.90;2.10;;;15.60;99.90;;;;;;5007923;28;21451;-68
2022/11/07 10:32:18;;;;;;;7.07;2.40;;;15.60;99.90;;;;;;4947949;28;20455;-68
2022/11/07 10:34:50;;;;;;;7.43;2.80;;;15.60;99.90;;;;;;4944561;28;20497;-67
2022/11/07 10:37:16;;;;;;;3.77;2.23;;;15.70;99.90;;;;;;4975137;22;20243;-67
2022/11/07 10:39:41;;;;;;;6.40;2.60;;;15.80;99.90;;;;;;5016460;28;20962;-68
2022/11/07 10:42:11;;;;;;;7.03;2.43;;;15.80;99.90;;;;;;4956349;28;20214;-67
2022/11/07 10:44:40;;;;;;;3.30;2.30;;;15.90;99.90;;;;;;4955334;28;20695;-68
2022/11/07 10:47:20;;;;;;;5.00;2.30;;;15.90;99.90;;;;;;4960650;28;20919;-68
2022/11/07 10:50:17;;;;;;;5.90;2.30;;;15.90;99.90;;;;;;4946475;28;20431;-68
2022/11/07 10:52:58;;;;;;;5.13;2.43;;;15.70;99.90;;;;;;4940819;28;20501;-68
2022/11/07 10:55:24;;;;;;;9.47;2.53;;;15.80;99.90;;;;;;4941694;28;20484;-67
2022/11/07 10:57:55;;;;;;;5.27;2.73;;;15.70;99.90;;;;;;4942632;28;20823;-67
2022/11/07 11:00:31;;;;;;;6.30;2.30;;;15.70;99.90;;;;;;4948159;28;20433;-69
2022/11/07 11:02:57;;;;;;;5.70;2.70;;;15.80;99.90;;;;;;5011114;28;20470;-68
2022/11/07 11:05:45;;;;;;;11.63;2.40;;;15.70;99.90;;;;;;4948380;28;20461;-67
2022/11/07 11:08:22;;;;;;;8.67;2.40;;;15.70;99.90;;;;;;4950471;28;20453;-68
2022/11/07 11:10:48;;;;;;;6.90;3.53;;;15.50;99.90;;;;;;4946297;28;20836;-68
2022/11/07 11:13:30;;;;;;;4.13;2.77;;;15.50;99.90;;;;;;4947512;28;20513;-67
2022/11/07 11:15:58;;;;;;;7.07;2.20;;;15.70;99.90;;;;;;4947536;28;20953;-68
2022/11/07 11:18:24;;;;;;;3.90;2.20;;;15.70;99.90;;;;;;4945132;28;20508;-67
2022/11/07 11:21:00;;;;;;;3.50;2.00;;;15.70;99.90;;;;;;4944797;28;20807;-67
2022/11/07 11:23:29;;;;;;;5.13;2.20;;;15.70;99.90;;;;;;4945471;28;20183;-69
2022/11/07 11:26:00;;;;;;;4.77;1.90;;;15.80;99.90;;;;;;4944260;28;20479;-69
2022/11/07 11:28:28;;;;;;;3.70;2.20;;;15.80;99.90;;;;;;4945852;28;20860;-69
2022/11/07 11:31:01;;;;;;;2.60;2.00;;;15.80;99.90;;;;;;4945143;28;20443;-67
2022/11/07 11:33:41;;;;;;;3.90;2.20;;;15.80;99.90;;;;;;4948765;28;20470;-69
2022/11/07 11:36:15;;;;;;;5.90;2.30;;;15.80;99.90;;;;;;4944959;28;20880;-68
2022/11/07 11:38:44;;;;;;;7.70;2.30;;;15.80;99.90;;;;;;4945180;28;20484;-69
2022/11/07 11:41:33;;;;;;;4.40;2.17;;;15.80;99.90;;;;;;4943302;28;20453;-68
2022/11/07 11:44:37;;;;;;;5.40;2.50;;;15.80;99.90;;;;;;5001578;28;20427;-68
2022/11/07 11:47:17;;;;;;;5.10;2.80;;;15.80;99.90;;;;;;4969680;28;20470;-68
2022/11/07 11:49:49;;;;;;;6.77;2.23;;;16.00;99.90;;;;;;4947311;28;20434;-68
2022/11/07 11:52:18;;;;;;;6.20;2.57;;;16.10;99.90;;;;;;4944443;28;21358;-68
2022/11/07 11:54:44;;;;;;;5.90;2.43;;;16.30;99.90;;;;;;4947938;28;20431;-68
2022/11/07 11:57:42;;;;;;;5.00;2.27;;;16.40;99.90;;;;;;4946333;28;20844;-68
2022/11/07 12:00:19;;;;;;;7.53;2.00;;;16.60;99.90;;;;;;4946153;28;20454;-68
2022/11/07 12:02:59;;;;;;;8.03;2.27;;;17.40;99.90;;;;;;4947304;28;20739;-68
2022/11/07 12:05:58;;;;;;;3.70;3.00;;;18.30;99.90;;;;;;4945439;28;20427;-68
2022/11/07 12:08:45;;;;;;;3.97;2.07;;;19.00;99.90;;;;;;4947504;28;20443;-68
2022/11/07 12:11:17;;;;;;;5.33;2.67;;;19.30;99.90;;;;;;4945866;28;20881;-69
2022/11/07 12:13:51;;;;;;;3.80;2.30;;;19.80;99.90;;;;;;4945957;28;20502;-68
2022/11/07 12:16:43;;;;;;;5.70;2.00;;;19.80;99.90;;;;;;4947997;28;20429;-68
2022/11/07 12:19:48;;;;;;;7.97;2.73;;;19.90;99.90;;;;;;4946603;28;20426;-67
2022/11/07 12:22:41;;;;;;;4.53;2.00;;;19.90;99.90;;;;;;4944751;28;20473;-68
2022/11/07 12:25:23;;;;;;;3.30;2.23;;;19.30;99.90;;;;;;4948046;28;20423;-67
2022/11/07 12:28:04;;;;;;;7.20;3.10;;;19.30;99.90;;;;;;4947185;28;20886;-69
2022/11/07 12:30:43;;;;;;;5.77;2.93;;;19.30;99.90;;;;;;4946990;28;20448;-67
2022/11/07 12:33:25;;;;;;;3.10;2.20;;;18.90;99.90;;;;;;4948899;28;20474;-67
2022/11/07 12:36:19;;;;;;;6.03;2.60;;;18.60;99.90;;;;;;4945547;28;20458;-67
2022/11/07 12:39:02;;;;;;;3.63;2.50;;;18.30;99.90;;;;;;4945119;28;20462;-68
2022/11/07 12:41:49;;;;;;;6.50;2.23;;;18.30;99.90;;;;;;4946699;28;20950;-68
2022/11/07 12:44:23;;;;;;;9.50;2.90;;;18.70;99.90;;;;;;4948868;28;20549;-69
2022/11/07 12:47:05;;;;;;;3.53;2.10;;;19.10;99.90;;;;;;4942769;28;20434;-68
2022/11/07 12:49:33;;;;;;;4.60;2.10;;;19.20;99.90;;;;;;4949515;28;20946;-70
2022/11/07 12:52:26;;;;;;;4.23;2.17;;;19.20;99.90;;;;;;4943946;28;20814;-69
2022/11/07 12:55:20;;;;;;;2.97;2.53;;;19.40;99.90;;;;;;4945543;28;20491;-68
2022/11/07 12:57:47;;;;;;;3.37;2.00;;;19.70;99.90;;;;;;4944091;28;20451;-67
2022/11/07 13:00:23;;;;;;;4.47;2.20;;;19.80;99.90;;;;;;4944007;28;20462;-69
2022/11/07 13:03:04;;;;;;;4.07;2.20;;;19.70;99.90;;;;;;5010702;28;20449;-67
2022/11/07 13:05:36;;;;;;;3.60;2.10;;;19.50;99.90;;;;;;4946809;28;20438;-67
2022/11/07 13:08:38;;;;;;;5.00;2.43;;;19.20;99.90;;;;;;4942843;28;20846;-67
2022/11/07 13:11:19;;;;;;;3.60;2.13;;;19.20;99.90;;;;;;4945016;28;20423;-67
2022/11/07 13:14:36;;;;;;;3.13;2.00;;;19.20;99.90;;;;;;4946870;28;20467;-69
2022/11/07 13:17:12;;;;;;;4.37;2.40;;;19.10;99.90;;;;;;4945185;28;20550;-68
2022/11/07 13:19:40;;;;;;;3.33;1.93;;;18.90;99.90;;;;;;4941640;28;20462;-68
2022/11/07 13:22:19;;;;;;;5.40;2.67;;;18.70;99.90;;;;;;4943288;28;20423;-69
2022/11/07 13:25:04;;;;;;;6.37;2.30;;;18.50;99.90;;;;;;4945914;28;20818;-68
2022/11/07 13:27:36;;;;;;;12.63;3.20;;;18.30;99.90;;;;;;4940557;28;20468;-70